sensor_id;sensor_type;location;lat;lon;timestamp;pressure;altitude;pressure_sealevel;temperature;humidity
60832;BME280;46665;51.558;-0.448;2023-03-04T00:00:55;102537.06;;;5.10;85.67
60832;BME280;46665;51.558;-0.448;2023-03-04T00:03:39;102543.94;;;5.12;85.28
60832;BME280;46665;51.558;-0.448;2023-03-04T00:06:23;102549.34;;;5.12;85.39
60832;BME280;46665;51.558;-0.448;2023-03-04T00:09:07;102547.88;;;5.10;84.93
60832;BME280;46665;51.558;-0.448;2023-03-04T00:11:51;102538.94;;;5.09;85.77
60832;BME280;46665;51.558;-0.448;2023-03-04T00:14:35;102544.53;;;5.08;85.17
60832;BME280;46665;51.558;-0.448;2023-03-04T00:17:19;102541.00;;;5.07;85.00
60832;BME280;46665;51.558;-0.448;2023-03-04T00:20:03;102536.25;;;5.09;85.07
60832;BME280;46665;51.558;-0.448;2023-03-04T00:22:47;102540.78;;;5.09;85.48
60832;BME280;46665;51.558;-0.448;2023-03-04T00:25:31;102524.38;;;5.04;86.04
60832;BME280;46665;51.558;-0.448;2023-03-04T00:28:16;102531.22;;;5.06;85.79
60832;BME280;46665;51.558;-0.448;2023-03-04T00:31:00;102529.56;;;5.05;86.02
60832;BME280;46665;51.558;-0.448;2023-03-04T00:33:44;102536.59;;;4.99;85.64
60832;BME280;46665;51.558;-0.448;2023-03-04T00:36:28;102542.19;;;4.98;85.98
60832;BME280;46665;51.558;-0.448;2023-03-04T00:39:12;102528.69;;;4.98;86.16
60832;BME280;46665;51.558;-0.448;2023-03-04T00:41:56;102539.69;;;4.96;85.94
60832;BME280;46665;51.558;-0.448;2023-03-04T00:44:40;102534.69;;;4.93;86.34
60832;BME280;46665;51.558;-0.448;2023-03-04T00:47:24;102526.16;;;4.90;86.24
60832;BME280;46665;51.558;-0.448;2023-03-04T00:50:09;102532.59;;;4.89;85.43
60832;BME280;46665;51.558;-0.448;2023-03-04T00:52:53;102531.38;;;4.91;85.51
60832;BME280;46665;51.558;-0.448;2023-03-04T00:55:37;102523.28;;;4.91;86.07
60832;BME280;46665;51.558;-0.448;2023-03-04T00:58:21;102533.41;;;4.89;86.54
60832;BME280;46665;51.558;-0.448;2023-03-04T01:01:06;102530.72;;;4.89;86.64
60832;BME280;46665;51.558;-0.448;2023-03-04T01:03:50;102530.50;;;4.91;86.60
60832;BME280;46665;51.558;-0.448;2023-03-04T01:06:34;102525.97;;;4.91;86.59
60832;BME280;46665;51.558;-0.448;2023-03-04T01:09:18;102535.06;;;4.90;86.84
60832;BME280;46665;51.558;-0.448;2023-03-04T01:12:02;102532.38;;;4.90;87.07
60832;BME280;46665;51.558;-0.448;2023-03-04T01:14:46;102532.59;;;4.89;86.88
60832;BME280;46665;51.558;-0.448;2023-03-04T01:17:30;102543.16;;;4.90;87.16
60832;BME280;46665;51.558;-0.448;2023-03-04T01:20:15;102532.97;;;4.86;87.25
60832;BME280;46665;51.558;-0.448;2023-03-04T01:22:59;102547.56;;;4.91;87.48
60832;BME280;46665;51.558;-0.448;2023-03-04T01:25:43;102551.25;;;4.90;87.24
60832;BME280;46665;51.558;-0.448;2023-03-04T01:28:27;102544.16;;;4.83;86.73
60832;BME280;46665;51.558;-0.448;2023-03-04T01:31:11;102545.19;;;4.82;86.79
60832;BME280;46665;51.558;-0.448;2023-03-04T01:33:55;102534.19;;;4.83;86.32
60832;BME280;46665;51.558;-0.448;2023-03-04T01:36:39;102532.53;;;4.82;86.63
60832;BME280;46665;51.558;-0.448;2023-03-04T01:39:23;102531.50;;;4.83;86.99
60832;BME280;46665;51.558;-0.448;2023-03-04T01:42:14;102525.47;;;4.81;86.98
60832;BME280;46665;51.558;-0.448;2023-03-04T01:45:01;102526.97;;;4.84;86.35
60832;BME280;46665;51.558;-0.448;2023-03-04T01:47:46;102523.63;;;4.82;86.57
60832;BME280;46665;51.558;-0.448;2023-03-04T01:50:34;102531.13;;;4.86;86.73
60832;BME280;46665;51.558;-0.448;2023-03-04T01:53:22;102522.38;;;4.84;87.38
60832;BME280;46665;51.558;-0.448;2023-03-04T01:56:34;102516.19;;;4.90;86.44
60832;BME280;46665;51.558;-0.448;2023-03-04T01:59:24;102508.69;;;4.86;87.46
60832;BME280;46665;51.558;-0.448;2023-03-04T02:02:08;102503.53;;;4.91;86.83
60832;BME280;46665;51.558;-0.448;2023-03-04T02:04:52;102506.84;;;4.86;86.99
60832;BME280;46665;51.558;-0.448;2023-03-04T02:07:36;102510.16;;;4.88;86.85
60832;BME280;46665;51.558;-0.448;2023-03-04T02:10:21;102504.75;;;4.88;86.86
60832;BME280;46665;51.558;-0.448;2023-03-04T02:13:05;102490.66;;;4.86;87.39
60832;BME280;46665;51.558;-0.448;2023-03-04T02:15:49;102493.53;;;4.85;87.58
60832;BME280;46665;51.558;-0.448;2023-03-04T02:18:33;102483.59;;;4.85;87.96
60832;BME280;46665;51.558;-0.448;2023-03-04T02:21:29;102497.72;;;4.87;87.91
60832;BME280;46665;51.558;-0.448;2023-03-04T02:24:20;102488.97;;;4.85;88.72
60832;BME280;46665;51.558;-0.448;2023-03-04T02:27:05;102485.63;;;4.83;88.97
60832;BME280;46665;51.558;-0.448;2023-03-04T02:29:50;102493.72;;;4.83;89.12
60832;BME280;46665;51.558;-0.448;2023-03-04T02:32:34;102482.50;;;4.80;88.85
60832;BME280;46665;51.558;-0.448;2023-03-04T02:35:18;102486.88;;;4.81;89.07
60832;BME280;46665;51.558;-0.448;2023-03-04T02:38:03;102486.25;;;4.78;89.42
60832;BME280;46665;51.558;-0.448;2023-03-04T02:40:50;102480.00;;;4.78;89.44
60832;BME280;46665;51.558;-0.448;2023-03-04T02:43:35;102471.03;;;4.71;90.01
60832;BME280;46665;51.558;-0.448;2023-03-04T02:46:19;102471.50;;;4.74;90.25
60832;BME280;46665;51.558;-0.448;2023-03-04T02:49:06;102468.38;;;4.77;90.54
60832;BME280;46665;51.558;-0.448;2023-03-04T02:52:08;102474.41;;;4.80;90.47
60832;BME280;46665;51.558;-0.448;2023-03-04T02:54:55;102464.47;;;4.80;90.84
60832;BME280;46665;51.558;-0.448;2023-03-04T02:57:39;102470.50;;;4.82;90.06
60832;BME280;46665;51.558;-0.448;2023-03-04T03:00:23;102458.44;;;4.78;90.29
60832;BME280;46665;51.558;-0.448;2023-03-04T03:03:07;102461.56;;;4.82;89.84
60832;BME280;46665;51.558;-0.448;2023-03-04T03:05:52;102462.41;;;4.82;89.38
60832;BME280;46665;51.558;-0.448;2023-03-04T03:08:37;102461.34;;;4.83;89.40
60832;BME280;46665;51.558;-0.448;2023-03-04T03:11:20;102454.94;;;4.84;89.28
60832;BME280;46665;51.558;-0.448;2023-03-04T03:14:05;102450.56;;;4.83;89.08
60832;BME280;46665;51.558;-0.448;2023-03-04T03:16:49;102450.56;;;4.83;89.01
60832;BME280;46665;51.558;-0.448;2023-03-04T03:19:34;102448.28;;;4.80;90.03
60832;BME280;46665;51.558;-0.448;2023-03-04T03:22:17;102455.78;;;4.85;89.99
60832;BME280;46665;51.558;-0.448;2023-03-04T03:25:02;102451.22;;;4.85;89.63
60832;BME280;46665;51.558;-0.448;2023-03-04T03:27:47;102457.44;;;4.86;89.55
60832;BME280;46665;51.558;-0.448;2023-03-04T03:30:31;102452.91;;;4.86;89.48
60832;BME280;46665;51.558;-0.448;2023-03-04T03:33:15;102455.38;;;4.88;89.96
60832;BME280;46665;51.558;-0.448;2023-03-04T03:35:59;102459.75;;;4.89;89.77
60832;BME280;46665;51.558;-0.448;2023-03-04T03:38:43;102448.50;;;4.85;89.81
60832;BME280;46665;51.558;-0.448;2023-03-04T03:41:27;102449.97;;;4.88;89.53
60832;BME280;46665;51.558;-0.448;2023-03-04T03:44:11;102447.28;;;4.88;89.77
60832;BME280;46665;51.558;-0.448;2023-03-04T03:46:56;102448.09;;;4.88;89.45
60832;BME280;46665;51.558;-0.448;2023-03-04T03:49:40;102464.94;;;4.90;90.23
60832;BME280;46665;51.558;-0.448;2023-03-04T03:52:24;102456.66;;;4.92;89.74
60832;BME280;46665;51.558;-0.448;2023-03-04T03:55:08;102458.06;;;4.88;89.91
60832;BME280;46665;51.558;-0.448;2023-03-04T03:57:53;102458.06;;;4.88;90.02
60832;BME280;46665;51.558;-0.448;2023-03-04T04:00:37;102443.56;;;4.89;90.45
60832;BME280;46665;51.558;-0.448;2023-03-04T04:03:21;102439.19;;;4.88;90.59
60832;BME280;46665;51.558;-0.448;2023-03-04T04:06:05;102445.22;;;4.90;89.89
60832;BME280;46665;51.558;-0.448;2023-03-04T04:08:49;102444.41;;;4.89;89.56
60832;BME280;46665;51.558;-0.448;2023-03-04T04:11:33;102449.56;;;4.91;90.23
60832;BME280;46665;51.558;-0.448;2023-03-04T04:14:17;102446.06;;;4.90;90.02
60832;BME280;46665;51.558;-0.448;2023-03-04T04:17:01;102450.03;;;4.94;89.79
60832;BME280;46665;51.558;-0.448;2023-03-04T04:19:45;102444.00;;;4.92;90.43
60832;BME280;46665;51.558;-0.448;2023-03-04T04:22:29;102454.16;;;4.90;90.94
60832;BME280;46665;51.558;-0.448;2023-03-04T04:25:13;102452.91;;;4.86;91.12
60832;BME280;46665;51.558;-0.448;2023-03-04T04:27:57;102457.06;;;4.89;90.88
60832;BME280;46665;51.558;-0.448;2023-03-04T04:30:42;102457.06;;;4.89;90.79
60832;BME280;46665;51.558;-0.448;2023-03-04T04:33:26;102448.97;;;4.89;90.66
60832;BME280;46665;51.558;-0.448;2023-03-04T04:36:13;102455.78;;;4.85;91.56
60832;BME280;46665;51.558;-0.448;2023-03-04T04:38:58;102450.81;;;4.88;91.71
60832;BME280;46665;51.558;-0.448;2023-03-04T04:41:43;102454.72;;;4.86;90.97
60832;BME280;46665;51.558;-0.448;2023-03-04T04:44:27;102451.63;;;4.82;91.10
60832;BME280;46665;51.558;-0.448;2023-03-04T04:47:11;102455.94;;;4.76;89.83
60832;BME280;46665;51.558;-0.448;2023-03-04T04:49:55;102461.97;;;4.78;89.87
60832;BME280;46665;51.558;-0.448;2023-03-04T04:52:39;102457.00;;;4.82;89.79
60832;BME280;46665;51.558;-0.448;2023-03-04T04:55:23;102464.47;;;4.80;89.02
60832;BME280;46665;51.558;-0.448;2023-03-04T04:58:07;102461.56;;;4.82;89.72
60832;BME280;46665;51.558;-0.448;2023-03-04T05:00:51;102467.16;;;4.80;89.67
60832;BME280;46665;51.558;-0.448;2023-03-04T05:03:36;102467.78;;;4.82;89.90
60832;BME280;46665;51.558;-0.448;2023-03-04T05:06:21;102465.69;;;4.77;89.29
60832;BME280;46665;51.558;-0.448;2023-03-04T05:09:06;102472.78;;;4.78;89.07
60832;BME280;46665;51.558;-0.448;2023-03-04T05:11:50;102472.56;;;4.80;89.07
60832;BME280;46665;51.558;-0.448;2023-03-04T05:14:33;102481.28;;;4.82;89.51
60832;BME280;46665;51.558;-0.448;2023-03-04T05:17:17;102477.53;;;4.83;89.29
60832;BME280;46665;51.558;-0.448;2023-03-04T05:20:02;102486.69;;;4.82;88.59
60832;BME280;46665;51.558;-0.448;2023-03-04T05:22:46;102484.38;;;4.79;88.81
60832;BME280;46665;51.558;-0.448;2023-03-04T05:25:30;102487.50;;;4.83;88.93
60832;BME280;46665;51.558;-0.448;2023-03-04T05:28:14;102478.78;;;4.81;89.30
60832;BME280;46665;51.558;-0.448;2023-03-04T05:30:59;102486.69;;;4.82;88.74
60832;BME280;46665;51.558;-0.448;2023-03-04T05:33:43;102492.72;;;4.84;89.08
60832;BME280;46665;51.558;-0.448;2023-03-04T05:36:27;102484.81;;;4.83;88.76
60832;BME280;46665;51.558;-0.448;2023-03-04T05:39:11;102490.41;;;4.81;88.48
60832;BME280;46665;51.558;-0.448;2023-03-04T05:41:55;102489.72;;;4.72;88.59
60832;BME280;46665;51.558;-0.448;2023-03-04T05:44:39;102488.25;;;4.70;88.91
60832;BME280;46665;51.558;-0.448;2023-03-04T05:47:23;102488.91;;;4.72;89.35
60832;BME280;46665;51.558;-0.448;2023-03-04T05:50:07;102487.59;;;4.68;89.59
60832;BME280;46665;51.558;-0.448;2023-03-04T05:52:52;102494.69;;;4.69;88.96
60832;BME280;46665;51.558;-0.448;2023-03-04T05:55:36;102491.34;;;4.67;89.89
60832;BME280;46665;51.558;-0.448;2023-03-04T05:58:20;102496.94;;;4.65;89.28
60832;BME280;46665;51.558;-0.448;2023-03-04T06:01:04;102497.38;;;4.69;89.65
60832;BME280;46665;51.558;-0.448;2023-03-04T06:03:50;102495.06;;;4.66;88.73
60832;BME280;46665;51.558;-0.448;2023-03-04T06:06:34;102491.28;;;4.60;89.96
60832;BME280;46665;51.558;-0.448;2023-03-04T06:09:18;102490.66;;;4.58;89.25
60832;BME280;46665;51.558;-0.448;2023-03-04T06:12:04;102492.50;;;4.57;89.37
60832;BME280;46665;51.558;-0.448;2023-03-04T06:14:48;102492.50;;;4.57;89.02
60832;BME280;46665;51.558;-0.448;2023-03-04T06:17:32;102494.78;;;4.54;89.84
60832;BME280;46665;51.558;-0.448;2023-03-04T06:20:16;102488.31;;;4.48;91.95
60832;BME280;46665;51.558;-0.448;2023-03-04T06:23:01;102485.81;;;4.47;93.35
60832;BME280;46665;51.558;-0.448;2023-03-04T06:25:50;102491.38;;;4.45;93.76
60832;BME280;46665;51.558;-0.448;2023-03-04T06:28:34;102494.94;;;4.46;93.71
60832;BME280;46665;51.558;-0.448;2023-03-04T06:31:17;102496.28;;;4.35;93.60
60832;BME280;46665;51.558;-0.448;2023-03-04T06:34:02;102496.03;;;4.30;94.61
60832;BME280;46665;51.558;-0.448;2023-03-04T06:36:46;102492.75;;;4.34;95.46
60832;BME280;46665;51.558;-0.448;2023-03-04T06:39:30;102505.22;;;4.36;95.33
60832;BME280;46665;51.558;-0.448;2023-03-04T06:42:15;102493.22;;;4.38;94.85
60832;BME280;46665;51.558;-0.448;2023-03-04T06:44:59;102498.34;;;4.33;94.17
60832;BME280;46665;51.558;-0.448;2023-03-04T06:47:43;102488.56;;;4.32;95.56
60832;BME280;46665;51.558;-0.448;2023-03-04T06:50:28;102500.56;;;4.29;94.98
60832;BME280;46665;51.558;-0.448;2023-03-04T06:53:11;102507.19;;;4.27;95.07
60832;BME280;46665;51.558;-0.448;2023-03-04T06:55:55;102505.53;;;4.26;95.94
60832;BME280;46665;51.558;-0.448;2023-03-04T06:58:39;102514.84;;;4.23;96.57
60832;BME280;46665;51.558;-0.448;2023-03-04T07:01:25;102519.97;;;4.18;95.67
60832;BME280;46665;51.558;-0.448;2023-03-04T07:04:12;102519.13;;;4.18;95.98
60832;BME280;46665;51.558;-0.448;2023-03-04T07:06:56;102521.63;;;4.19;96.94
60832;BME280;46665;51.558;-0.448;2023-03-04T07:09:41;102522.47;;;4.20;97.52
60832;BME280;46665;51.558;-0.448;2023-03-04T07:12:25;102517.53;;;4.23;97.52
60832;BME280;46665;51.558;-0.448;2023-03-04T07:15:09;102524.41;;;4.26;97.87
60832;BME280;46665;51.558;-0.448;2023-03-04T07:17:53;102525.41;;;4.25;97.76
60832;BME280;46665;51.558;-0.448;2023-03-04T07:20:38;102520.97;;;4.17;97.10
60832;BME280;46665;51.558;-0.448;2023-03-04T07:23:22;102522.66;;;4.18;98.22
60832;BME280;46665;51.558;-0.448;2023-03-04T07:26:06;102527.19;;;4.18;97.68
60832;BME280;46665;51.558;-0.448;2023-03-04T07:28:50;102536.19;;;4.25;97.85
60832;BME280;46665;51.558;-0.448;2023-03-04T07:31:35;102527.28;;;4.24;97.70
60832;BME280;46665;51.558;-0.448;2023-03-04T07:34:19;102534.97;;;4.27;98.85
60832;BME280;46665;51.558;-0.448;2023-03-04T07:37:03;102542.88;;;4.29;98.08
60832;BME280;46665;51.558;-0.448;2023-03-04T07:39:47;102540.63;;;4.32;98.43
60832;BME280;46665;51.558;-0.448;2023-03-04T07:42:31;102533.38;;;4.33;97.91
60832;BME280;46665;51.558;-0.448;2023-03-04T07:45:15;102540.81;;;4.31;97.76
60832;BME280;46665;51.558;-0.448;2023-03-04T07:47:59;102540.44;;;4.34;97.47
60832;BME280;46665;51.558;-0.448;2023-03-04T07:50:43;102537.00;;;4.25;98.06
60832;BME280;46665;51.558;-0.448;2023-03-04T07:53:27;102542.88;;;4.29;98.51
60832;BME280;46665;51.558;-0.448;2023-03-04T07:56:14;102536.19;;;4.25;97.68
60832;BME280;46665;51.558;-0.448;2023-03-04T07:58:59;102546.41;;;4.29;98.32
60832;BME280;46665;51.558;-0.448;2023-03-04T08:01:43;102546.88;;;4.33;98.81
60832;BME280;46665;51.558;-0.448;2023-03-04T08:04:27;102550.38;;;4.33;98.38
60832;BME280;46665;51.558;-0.448;2023-03-04T08:07:11;102551.41;;;4.32;99.21
60832;BME280;46665;51.558;-0.448;2023-03-04T08:09:55;102549.91;;;4.30;99.40
60832;BME280;46665;51.558;-0.448;2023-03-04T08:12:39;102558.91;;;4.37;99.49
60832;BME280;46665;51.558;-0.448;2023-03-04T08:15:23;102560.47;;;4.46;99.64
60832;BME280;46665;51.558;-0.448;2023-03-04T08:18:07;102549.94;;;4.51;100.00
60832;BME280;46665;51.558;-0.448;2023-03-04T08:20:51;102550.59;;;4.60;98.83
60832;BME280;46665;51.558;-0.448;2023-03-04T08:23:35;102550.69;;;4.67;97.52
60832;BME280;46665;51.558;-0.448;2023-03-04T08:26:28;102553.88;;;4.77;96.97
60832;BME280;46665;51.558;-0.448;2023-03-04T08:29:15;102550.38;;;4.83;96.17
60832;BME280;46665;51.558;-0.448;2023-03-04T08:32:00;102565.72;;;4.83;95.20
60832;BME280;46665;51.558;-0.448;2023-03-04T08:34:44;102557.25;;;4.86;95.96
60832;BME280;46665;51.558;-0.448;2023-03-04T08:37:28;102552.09;;;4.91;95.73
60832;BME280;46665;51.558;-0.448;2023-03-04T08:40:13;102554.44;;;5.00;96.16
60832;BME280;46665;51.558;-0.448;2023-03-04T08:42:57;102558.84;;;5.08;95.61
60832;BME280;46665;51.558;-0.448;2023-03-04T08:45:41;102551.59;;;5.09;95.79
60832;BME280;46665;51.558;-0.448;2023-03-04T08:48:25;102557.69;;;5.17;95.98
60832;BME280;46665;51.558;-0.448;2023-03-04T08:51:11;102552.34;;;5.24;94.40
60832;BME280;46665;51.558;-0.448;2023-03-04T08:53:55;102544.06;;;5.32;93.70
60832;BME280;46665;51.558;-0.448;2023-03-04T08:56:40;102556.56;;;5.40;93.34
60832;BME280;46665;51.558;-0.448;2023-03-04T08:59:25;102547.66;;;5.46;92.53
60832;BME280;46665;51.558;-0.448;2023-03-04T09:02:09;102541.84;;;5.42;91.19
60832;BME280;46665;51.558;-0.448;2023-03-04T09:04:53;102541.44;;;5.46;90.17
60832;BME280;46665;51.558;-0.448;2023-03-04T09:07:37;102532.13;;;5.55;90.93
60832;BME280;46665;51.558;-0.448;2023-03-04T09:10:21;102543.75;;;5.62;91.20
60832;BME280;46665;51.558;-0.448;2023-03-04T09:13:05;102539.22;;;5.69;91.00
60832;BME280;46665;51.558;-0.448;2023-03-04T09:15:50;102544.66;;;5.76;89.85
60832;BME280;46665;51.558;-0.448;2023-03-04T09:18:35;102543.44;;;5.78;88.70
60832;BME280;46665;51.558;-0.448;2023-03-04T09:21:19;102536.97;;;5.79;88.22
60832;BME280;46665;51.558;-0.448;2023-03-04T09:24:03;102544.66;;;5.76;87.52
60832;BME280;46665;51.558;-0.448;2023-03-04T09:26:52;102543.22;;;5.73;86.73
60832;BME280;46665;51.558;-0.448;2023-03-04T09:29:36;102553.19;;;5.79;87.71
60832;BME280;46665;51.558;-0.448;2023-03-04T09:32:20;102555.50;;;5.82;87.71
60832;BME280;46665;51.558;-0.448;2023-03-04T09:35:04;102555.09;;;5.85;87.09
60832;BME280;46665;51.558;-0.448;2023-03-04T09:37:49;102553.41;;;5.84;86.96
60832;BME280;46665;51.558;-0.448;2023-03-04T09:40:40;102553.63;;;5.83;87.08
60832;BME280;46665;51.558;-0.448;2023-03-04T09:43:27;102558.81;;;5.84;87.21
60832;BME280;46665;51.558;-0.448;2023-03-04T09:46:27;102559.81;;;5.77;86.56
60832;BME280;46665;51.558;-0.448;2023-03-04T09:49:12;102554.47;;;5.83;85.83
60832;BME280;46665;51.558;-0.448;2023-03-04T09:52:18;102561.50;;;5.84;86.51
60832;BME280;46665;51.558;-0.448;2023-03-04T10:00:59;102547.22;;;5.91;85.38
60832;BME280;46665;51.558;-0.448;2023-03-04T10:03:54;102551.00;;;5.96;85.90
60832;BME280;46665;51.558;-0.448;2023-03-04T10:06:41;102554.78;;;6.08;86.82
60832;BME280;46665;51.558;-0.448;2023-03-04T10:09:45;102552.06;;;6.15;85.73
60832;BME280;46665;51.558;-0.448;2023-03-04T10:12:33;102549.63;;;6.20;85.47
60832;BME280;46665;51.558;-0.448;2023-03-04T10:15:30;102555.03;;;6.20;84.00
60832;BME280;46665;51.558;-0.448;2023-03-04T10:18:23;102549.16;;;6.10;85.33
60832;BME280;46665;51.558;-0.448;2023-03-04T10:21:22;102539.38;;;5.96;85.73
60832;BME280;46665;51.558;-0.448;2023-03-04T10:24:14;102544.72;;;5.89;86.56
60832;BME280;46665;51.558;-0.448;2023-03-04T10:27:04;102545.94;;;5.86;86.58
60832;BME280;46665;51.558;-0.448;2023-03-04T10:29:50;102541.78;;;5.84;86.85
60832;BME280;46665;51.558;-0.448;2023-03-04T10:32:34;102545.50;;;5.76;85.83
60832;BME280;46665;51.558;-0.448;2023-03-04T10:35:22;102543.38;;;5.65;86.00
60832;BME280;46665;51.558;-0.448;2023-03-04T10:38:11;102535.69;;;5.69;87.48
60832;BME280;46665;51.558;-0.448;2023-03-04T10:40:57;102533.41;;;5.65;87.48
60832;BME280;46665;51.558;-0.448;2023-03-04T10:43:41;102529.47;;;5.68;87.80
60832;BME280;46665;51.558;-0.448;2023-03-04T10:46:30;102532.22;;;5.75;87.71
60832;BME280;46665;51.558;-0.448;2023-03-04T10:49:17;102535.56;;;5.83;87.12
60832;BME280;46665;51.558;-0.448;2023-03-04T10:55:27;102536.84;;;5.94;86.22
60832;BME280;46665;51.558;-0.448;2023-03-04T10:58:14;102525.84;;;5.96;85.93
60832;BME280;46665;51.558;-0.448;2023-03-04T11:01:04;102528.75;;;6.07;86.44
60832;BME280;46665;51.558;-0.448;2023-03-04T11:03:48;102522.78;;;6.19;85.04
60832;BME280;46665;51.558;-0.448;2023-03-04T11:06:39;102530.50;;;6.28;83.36
60832;BME280;46665;51.558;-0.448;2023-03-04T11:09:26;102508.44;;;6.45;83.49
60832;BME280;46665;51.558;-0.448;2023-03-04T11:12:13;102523.00;;;6.37;80.79
60832;BME280;46665;51.558;-0.448;2023-03-04T11:14:59;102509.50;;;6.44;81.77
60832;BME280;46665;51.558;-0.448;2023-03-04T11:17:54;102506.16;;;6.42;81.08
60832;BME280;46665;51.558;-0.448;2023-03-04T11:20:41;102509.91;;;6.41;81.16
60832;BME280;46665;51.558;-0.448;2023-03-04T11:26:42;102515.31;;;6.34;80.21
60832;BME280;46665;51.558;-0.448;2023-03-04T11:29:47;102510.31;;;6.31;80.76
60832;BME280;46665;51.558;-0.448;2023-03-04T11:32:38;102508.03;;;6.28;79.05
60832;BME280;46665;51.558;-0.448;2023-03-04T11:38:35;102510.09;;;6.33;80.24
60832;BME280;46665;51.558;-0.448;2023-03-04T11:41:24;102504.69;;;6.39;79.90
60832;BME280;46665;51.558;-0.448;2023-03-04T11:44:11;102512.59;;;6.34;77.90
60832;BME280;46665;51.558;-0.448;2023-03-04T11:57:45;102488.88;;;6.49;78.48
60832;BME280;46665;51.558;-0.448;2023-03-04T12:01:01;102487.00;;;6.30;77.10
60832;BME280;46665;51.558;-0.448;2023-03-04T12:19:43;102466.66;;;6.41;78.34
60832;BME280;46665;51.558;-0.448;2023-03-04T12:22:51;102460.38;;;6.47;78.10
60832;BME280;46665;51.558;-0.448;2023-03-04T12:25:41;102454.16;;;6.46;77.66
60832;BME280;46665;51.558;-0.448;2023-03-04T12:34:32;102443.97;;;6.42;76.05
60832;BME280;46665;51.558;-0.448;2023-03-04T12:37:26;102445.00;;;6.41;77.62
60832;BME280;46665;51.558;-0.448;2023-03-04T12:40:46;102442.50;;;6.39;78.35
60832;BME280;46665;51.558;-0.448;2023-03-04T12:43:34;102438.16;;;6.38;77.84
60832;BME280;46665;51.558;-0.448;2023-03-04T12:55:55;102423.78;;;6.24;78.53
60832;BME280;46665;51.558;-0.448;2023-03-04T12:58:40;102423.38;;;6.27;78.69
60832;BME280;46665;51.558;-0.448;2023-03-04T13:01:28;102421.72;;;6.33;77.04
60832;BME280;46665;51.558;-0.448;2023-03-04T13:04:28;102415.25;;;6.34;76.36
60832;BME280;46665;51.558;-0.448;2023-03-04T13:07:23;102420.88;;;6.39;76.09
60832;BME280;46665;51.558;-0.448;2023-03-04T13:10:18;102412.34;;;6.36;76.08
60832;BME280;46665;51.558;-0.448;2023-03-04T13:13:39;102405.91;;;6.37;76.38
60832;BME280;46665;51.558;-0.448;2023-03-04T13:16:43;102395.50;;;6.34;76.57
60832;BME280;46665;51.558;-0.448;2023-03-04T13:19:55;102409.03;;;6.34;76.74
60832;BME280;46665;51.558;-0.448;2023-03-04T13:22:45;102402.59;;;6.21;77.45
60832;BME280;46665;51.558;-0.448;2023-03-04T13:28:51;102401.53;;;6.22;77.29
60832;BME280;46665;51.558;-0.448;2023-03-04T13:34:52;102395.09;;;6.17;77.72
60832;BME280;46665;51.558;-0.448;2023-03-04T13:37:56;102385.75;;;6.19;76.44
60832;BME280;46665;51.558;-0.448;2023-03-04T13:40:41;102393.66;;;6.21;76.85
60832;BME280;46665;51.558;-0.448;2023-03-04T13:43:27;102381.38;;;6.18;76.54
60832;BME280;46665;51.558;-0.448;2023-03-04T13:49:05;102375.34;;;6.23;77.49
60832;BME280;46665;51.558;-0.448;2023-03-04T13:51:51;102370.34;;;6.26;76.71
60832;BME280;46665;51.558;-0.448;2023-03-04T13:54:36;102366.19;;;6.31;76.56
60832;BME280;46665;51.558;-0.448;2023-03-04T13:57:20;102361.81;;;6.36;76.25
60832;BME280;46665;51.558;-0.448;2023-03-04T14:00:04;102369.91;;;6.36;74.96
60832;BME280;46665;51.558;-0.448;2023-03-04T14:02:54;102363.91;;;6.21;73.25
60832;BME280;46665;51.558;-0.448;2023-03-04T14:05:39;102370.97;;;6.22;74.40
60832;BME280;46665;51.558;-0.448;2023-03-04T14:08:24;102377.81;;;6.18;74.56
60832;BME280;46665;51.558;-0.448;2023-03-04T14:11:13;102358.91;;;6.24;75.21
60832;BME280;46665;51.558;-0.448;2023-03-04T14:14:03;102358.28;;;6.29;75.96
60832;BME280;46665;51.558;-0.448;2023-03-04T14:16:59;102362.63;;;6.37;74.52
60832;BME280;46665;51.558;-0.448;2023-03-04T14:19:45;102366.78;;;6.39;74.86
60832;BME280;46665;51.558;-0.448;2023-03-04T14:22:32;102362.00;;;6.41;73.41
60832;BME280;46665;51.558;-0.448;2023-03-04T14:25:24;102357.22;;;6.37;73.17
60832;BME280;46665;51.558;-0.448;2023-03-04T14:28:11;102355.97;;;6.39;73.74
60832;BME280;46665;51.558;-0.448;2023-03-04T14:30:56;102352.66;;;6.44;74.26
60832;BME280;46665;51.558;-0.448;2023-03-04T14:33:44;102353.06;;;6.41;72.66
60832;BME280;46665;51.558;-0.448;2023-03-04T14:36:31;102352.25;;;6.34;73.21
60832;BME280;46665;51.558;-0.448;2023-03-04T14:39:16;102346.84;;;6.34;74.00
60832;BME280;46665;51.558;-0.448;2023-03-04T14:42:07;102345.38;;;6.24;72.55
60832;BME280;46665;51.558;-0.448;2023-03-04T14:44:54;102340.63;;;6.13;72.48
60832;BME280;46665;51.558;-0.448;2023-03-04T14:47:42;102334.81;;;6.16;74.72
60832;BME280;46665;51.558;-0.448;2023-03-04T14:50:28;102326.91;;;6.21;75.04
60832;BME280;46665;51.558;-0.448;2023-03-04T14:53:16;102331.88;;;6.24;75.65
60832;BME280;46665;51.558;-0.448;2023-03-04T14:58:53;102323.13;;;6.36;74.90
60832;BME280;46665;51.558;-0.448;2023-03-04T15:01:38;102322.69;;;6.39;74.82
60832;BME280;46665;51.558;-0.448;2023-03-04T15:04:22;102311.06;;;6.38;74.25
60832;BME280;46665;51.558;-0.448;2023-03-04T15:07:14;102309.81;;;6.41;73.59
60832;BME280;46665;51.558;-0.448;2023-03-04T15:10:01;102313.09;;;6.43;74.57
60832;BME280;46665;51.558;-0.448;2023-03-04T15:12:55;102303.34;;;6.42;74.20
60832;BME280;46665;51.558;-0.448;2023-03-04T15:15:45;102296.47;;;6.46;74.34
60832;BME280;46665;51.558;-0.448;2023-03-04T15:18:29;102298.13;;;6.47;73.90
60832;BME280;46665;51.558;-0.448;2023-03-04T15:21:37;102291.28;;;6.38;73.90
60832;BME280;46665;51.558;-0.448;2023-03-04T15:24:22;102294.84;;;6.32;72.85
60832;BME280;46665;51.558;-0.448;2023-03-04T15:27:10;102295.47;;;6.27;73.85
60832;BME280;46665;51.558;-0.448;2023-03-04T15:29:57;102286.16;;;6.23;74.45
60832;BME280;46665;51.558;-0.448;2023-03-04T15:32:42;102295.72;;;6.25;74.04
60832;BME280;46665;51.558;-0.448;2023-03-04T15:35:30;102298.41;;;6.25;72.92
60832;BME280;46665;51.558;-0.448;2023-03-04T15:38:15;102291.75;;;6.28;73.52
60832;BME280;46665;51.558;-0.448;2023-03-04T15:40:59;102295.91;;;6.31;74.10